Latest Weather Observations for Hughenden

IDQ60801

Issued at 3:02 pm EST Tuesday 30 May 2017 (issued every 30 minutes, with the page automatically refreshed every 10 minutes)

About weather observations | Map of weather stations | Latest weather observations for QLD | Other Formats
Station Details ID: 030022 Name: HUGHENDEN AIRPORT Lat: -20.82 Lon: 144.23 Height: 316.4 m
Data from the previous 72 hours. | See also: Recent months at Hughenden
Date/Time
EST
Temp
°C
App
Temp
°C
Dew
Point
°C
Rel
Hum
%
Delta-T
°C
Wind Press
QNH
hPa
Press
MSL
hPa
Rain since
9am
mm
Dir  Spd
km/h
Gust
km/h
Spd
kts
Gust
kts
30/03:00pm 27.5 23.7 3.9 22 12.0 SE 13 17 7 9 1017.8 1016.6 0.0
30/02:30pm 27.3 23.2 4.4 23 11.8 SE 15 20 8 11 1018.1 1016.9 0.0
30/02:00pm 27.4 23.1 5.1 24 11.6 SE 17 22 9 12 1018.2 1017.0 0.0
30/01:30pm 27.3 23.8 5.6 25 11.4 ESE 13 20 7 11 1018.5 1017.3 0.0
30/01:00pm 26.7 23.2 5.6 26 11.0 ESE 13 22 7 12 1018.9 1017.7 0.0
30/12:30pm 26.9 23.3 5.2 25 11.3 SE 13 20 7 11 1019.4 1018.2 0.0
30/12:00pm 27.4 23.4 5.1 24 11.6 SE 15 24 8 13 1019.8 1018.6 0.0
30/11:30am 26.6 22.4 5.5 26 11.0 ESE 17 24 9 13 1020.5 1019.3 0.0
30/11:00am 26.7 21.9 4.5 24 11.4 SE 19 30 10 16 1020.8 1019.6 0.0
30/10:30am 24.9 20.1 2.4 23 11.0 ESE 17 24 9 13 1021.1 1019.9 0.0
30/10:00am 25.1 21.3 1.9 22 11.2 ESE 11 19 6 10 1021.2 1020.0 0.0
30/09:30am 23.8 19.5 0.8 22 10.8 E 13 19 7 10 1021.1 1019.9 0.0
30/09:00am 21.8 18.2 0.9 25 9.7 ESE 9 13 5 7 1020.9 1019.7 0.0
30/08:30am 20.1 16.9 0.5 27 8.9 SE 7 11 4 6 1020.4 1019.2 0.0
30/08:00am 17.8 14.8 0.5 31 7.7 NE 6 7 3 4 1020.4 1019.2 0.0
30/07:30am 14.6 12.6 0.1 37 6.2 CALM 0 0 0 0 1020.2 1019.0 0.0
30/07:00am 15.2 13.2 0.2 36 6.5 CALM 0 6 0 3 1019.9 1018.7 0.0
30/06:30am 15.1 11.7 -0.6 34 6.7 ESE 7 11 4 6 1019.8 1018.6 0.0
30/06:00am 15.9 12.7 -0.3 33 7.0 SSE 6 7 3 4 1019.5 1018.3 0.0
30/05:30am 16.9 13.7 -0.3 31 7.5 SE 6 7 3 4 1019.4 1018.2 0.0
30/05:00am 17.7 14.4 -0.1 30 7.8 SSE 7 11 4 6 1019.2 1018.0 0.0
30/04:30am 18.2 14.1 -0.1 29 8.1 SSE 11 17 6 9 1019.3 1018.1 0.0
30/04:00am 16.9 14.1 -0.3 31 7.5 WSW 4 11 2 6 1019.1 1017.9 0.0
30/03:30am 17.4 15.0 -0.3 30 7.7 SSE 2 7 1 4 1019.0 1017.8 0.0
30/03:00am 17.4 14.2 -0.3 30 7.7 NNW 6 7 3 4 1019.6 1018.4 0.0
30/02:30am 17.3 15.3 0.0 31 7.6 CALM 0 0 0 0 1019.5 1018.3 0.0
30/02:00am 17.2 15.1 -0.5 30 7.7 CALM 0 0 0 0 1019.4 1018.2 0.0
30/01:30am 17.6 14.4 -0.6 29 7.9 ESE 6 9 3 5 1019.5 1018.3 0.0
30/01:00am 17.9 15.1 -0.4 29 8.0 ENE 4 7 2 4 1019.6 1018.4 0.0
30/12:30am 18.2 15.4 -0.1 29 8.1 SE 4 7 2 4 1019.4 1018.2 0.0
30/12:00am 17.9 14.7 -0.8 28 8.1 SSW 6 7 3 4 1019.7 1018.5 0.0
 
Date/Time
EST
Temp
°C
App
Temp
°C
Dew
Point
°C
Rel
Hum
%
Delta-T
°C
Wind Press
QNH
hPa
Press
MSL
hPa
Rain since
9am
mm
Dir  Spd
km/h
Gust
km/h
Spd
kts
Gust
kts
29/11:30pm 18.4 15.2 -0.4 28 8.3 E 6 7 3 4 1020.1 1018.8 0.0
29/11:00pm 19.1 15.9 -0.8 26 8.7 SSE 6 7 3 4 1020.8 1019.6 0.0
29/10:30pm 19.7 15.9 -0.9 25 9.1 SSE 9 9 5 5 1020.5 1019.3 0.0
29/10:00pm 20.3 16.1 -0.9 24 9.4 SSE 11 11 6 6 1020.2 1019.0 0.0
29/09:30pm 21.0 16.8 -0.9 23 9.7 SSE 11 13 6 7 1020.1 1018.8 0.0
29/09:00pm 21.5 16.9 -1.1 22 10.0 SSE 13 17 7 9 1019.9 1018.7 0.0
29/08:30pm 21.7 16.7 -0.9 22 10.1 S 15 19 8 10 1020.4 1019.2 0.0
29/08:00pm 21.9 17.3 -0.8 22 10.2 SSW 13 17 7 9 1020.1 1018.8 0.0
29/07:30pm 21.5 17.5 0.7 25 9.6 SSE 11 13 6 7 1019.5 1018.3 0.0
29/07:00pm 21.1 17.6 1.4 27 9.2 S 9 11 5 6 1019.4 1018.2 0.0
29/06:30pm 21.8 19.8 -0.2 23 10.0 CALM 0 0 0 0 1018.7 1017.5 0.0
29/06:00pm 23.9 20.9 0.9 22 10.8 ESE 6 7 3 4 1018.6 1017.4 0.0
29/05:30pm 25.1 21.5 0.6 20 11.6 ESE 9 13 5 7 1018.1 1016.9 0.0
29/05:00pm 26.0 22.4 0.6 19 12.1 ESE 9 11 5 6 1018.0 1016.8 0.0
29/04:30pm 26.2 22.1 0.0 18 12.4 SE 11 15 6 8 1018.2 1017.0 0.0
29/04:00pm 26.6 22.1 -0.4 17 12.7 ESE 13 20 7 11 1017.6 1016.4 0.0
29/03:30pm 27.1 23.0 0.0 17 12.9 ESE 11 17 6 9 1017.8 1016.6 0.0
29/03:00pm 27.0 22.9 -0.1 17 12.8 ESE 11 20 6 11 1017.1 1015.8 0.0
29/02:30pm 26.7 22.3 0.4 18 12.5 SE 13 20 7 11 1018.1 1016.9 0.0
29/02:00pm 26.8 22.5 1.3 19 12.3 E 13 22 7 12 1017.9 1016.7 0.0
29/01:30pm 27.1 22.0 0.8 18 12.7 SE 17 26 9 14 1018.3 1017.1 0.0
29/01:00pm 26.6 21.6 1.1 19 12.3 SE 17 24 9 13 1018.6 1017.4 0.0
29/12:30pm 25.9 21.6 1.2 20 11.9 ESE 13 20 7 11 1018.9 1017.7 0.0
29/12:00pm 25.6 21.4 1.7 21 11.6 E 13 17 7 9 1019.0 1017.8 0.0
29/11:30am 24.5 21.0 1.4 22 11.0 ESE 9 15 5 8 1019.3 1018.1 0.0
29/11:00am 23.7 19.9 2.0 24 10.4 SE 11 19 6 10 1019.7 1018.5 0.0
29/10:30am 22.5 18.8 -0.3 22 10.4 SSE 9 15 5 8 1020.2 1019.0 0.0
29/10:00am 22.4 17.5 -0.3 22 10.3 SE 15 19 8 10 1019.9 1018.7 0.0
29/09:30am 21.3 16.7 -1.3 22 10.0 SSE 13 15 7 8 1020.5 1019.3 0.0
29/09:00am 19.9 16.5 -0.7 25 9.1 SE 7 11 4 6 1020.2 1019.0 0.0
29/08:30am 18.4 14.6 -0.9 27 8.4 SSE 9 11 5 6 1020.2 1019.0 0.0
29/08:00am 17.7 13.9 -1.0 28 8.0 SSE 9 13 5 7 1019.8 1018.6 0.0
29/07:30am 16.6 13.1 -1.5 29 7.7 S 7 11 4 6 1019.6 1018.4 0.0
29/07:00am 16.1 11.6 -0.2 33 7.0 SW 13 19 7 10 1019.4 1018.2 0.0
29/06:30am 13.6 9.8 -0.8 37 6.0 NE 9 11 5 6 1018.4 1017.2 0.0
29/06:00am 14.6 11.3 -1.1 34 6.6 NE 6 7 3 4 1018.4 1017.2 0.0
29/05:30am 15.0 11.5 -1.1 33 6.8 NE 7 9 4 5 1018.2 1017.0 0.0
29/05:00am 15.9 11.5 0.1 34 6.9 NE 13 17 7 9 1017.9 1016.7 0.0
29/04:30am 13.3 9.4 -1.8 35 6.1 NNE 9 11 5 6 1018.1 1016.9 0.0
29/04:00am 12.5 8.8 -2.5 35 5.9 N 7 11 4 6 1018.2 1017.0 0.0
29/03:30am 12.6 9.2 -2.1 36 5.9 NE 6 7 3 4 1017.6 1016.4 0.0
29/03:00am 13.9 10.1 -0.9 36 6.2 ESE 9 13 5 7 1017.7 1016.5 0.0
29/02:30am 13.8 9.2 -1.4 35 6.3 ESE 13 15 7 8 1017.8 1016.6 0.0
29/02:00am 13.7 9.2 -0.3 38 5.9 SE 13 13 7 7 1018.1 1016.9 0.0
29/01:30am 13.4 10.0 -2.1 34 6.3 SE 6 7 3 4 1018.5 1017.3 0.0
29/01:00am 14.8 11.1 -0.1 36 6.4 SE 9 11 5 6 1018.6 1017.4 0.0
29/12:30am 14.1 9.9 -1.1 35 6.3 SE 11 13 6 7 1018.6 1017.4 0.0
29/12:00am 15.3 11.5 -0.9 33 6.8 SE 9 9 5 5 1018.6 1017.4 0.0
 
Date/Time
EST
Temp
°C
App
Temp
°C
Dew
Point
°C
Rel
Hum
%
Delta-T
°C
Wind Press
QNH
hPa
Press
MSL
hPa
Rain since
9am
mm
Dir  Spd
km/h
Gust
km/h
Spd
kts
Gust
kts
28/11:30pm 15.9 12.1 -0.8 32 7.1 SE 9 13 5 7 1018.8 1017.6 0.0
28/11:00pm 16.5 12.3 -0.7 31 7.4 SE 11 13 6 7 1018.7 1017.5 0.0
28/10:30pm 16.2 11.9 -1.4 30 7.4 SSE 11 13 6 7 1019.1 1017.9 0.0
28/10:00pm 17.5 13.7 -0.7 29 7.9 SE 9 9 5 5 1019.0 1017.8 0.0
28/09:30pm 17.0 12.8 -1.1 29 7.7 SSE 11 13 6 7 1018.9 1017.7 0.0
28/09:00pm 18.3 14.5 -1.0 27 8.4 SE 9 9 5 5 1018.8 1017.6 0.0
28/08:30pm 20.3 16.6 -0.3 25 9.2 SE 9 11 5 6 1018.8 1017.6 0.0
28/08:00pm 20.5 16.3 -0.7 24 9.4 SE 11 11 6 6 1018.1 1016.9 0.0
28/07:30pm 20.9 16.6 -1.6 22 9.9 S 11 13 6 7 1017.8 1016.6 0.0
28/07:00pm 22.4 18.6 -1.0 21 10.5 S 9 11 5 6 1017.4 1016.1 0.0
28/06:30pm 23.7 19.8 -1.3 19 11.3 SSE 9 11 5 6 1016.9 1015.6 0.0
28/06:00pm 25.7 21.1 -1.2 17 12.4 S 13 15 7 8 1016.5 1015.3 0.0
28/05:30pm 27.3 22.2 -1.6 15 13.4 S 15 17 8 9 1016.2 1015.0 0.0
28/05:00pm 28.2 22.4 -1.8 14 13.9 S 19 26 10 14 1015.9 1014.7 0.0
28/04:30pm 28.6 22.8 -1.5 14 14.1 S 19 30 10 16 1015.8 1014.6 0.0
28/04:00pm 29.3 24.2 0.9 16 13.9 S 17 32 9 17 1015.7 1014.5 0.0
28/03:30pm 29.3 23.8 0.9 16 13.9 SSE 19 26 10 14 1015.6 1014.4 0.0
28/03:00pm 29.9 24.5 1.4 16 14.1 SSE 19 28 10 15 1015.8 1014.6 0.0
28/02:30pm 29.2 24.5 0.8 16 13.9 SSE 15 24 8 13 1015.9 1014.7 0.0
28/02:00pm 29.6 24.6 1.1 16 14.0 SSE 17 28 9 15 1016.2 1015.0 0.0
28/01:30pm 28.6 23.1 0.3 16 13.7 S 19 32 10 17 1016.4 1015.2 0.0
28/01:00pm 29.0 24.1 2.3 18 13.4 S 17 30 9 16 1017.1 1015.8 0.0
28/12:30pm 28.2 23.5 3.1 20 12.7 S 17 26 9 14 1017.5 1016.3 0.0
28/12:00pm 28.0 25.8 6.2 25 11.6 SSE 7 15 4 8 1017.9 1016.7 0.0
28/11:30am 27.4 25.5 6.8 27 11.0 SSW 6 13 3 7 1018.3 1017.1 0.0
28/11:00am 26.1 24.2 7.7 31 9.9 WSW 7 13 4 7 1018.7 1017.5 0.0
28/10:30am 24.9 23.6 9.2 37 8.7 W 6 11 3 6 1019.0 1017.8 0.0
28/10:00am 23.8 22.6 9.4 40 7.9 N 6 11 3 6 1019.1 1017.9 0.0
28/09:30am 22.9 22.1 9.7 43 7.3 NE 4 7 2 4 1019.1 1017.9 0.0
28/09:00am 21.9 21.1 11.0 50 6.1 E 6 9 3 5 1018.9 1017.7 0.0
28/08:30am 19.1 17.8 9.3 53 5.2 SE 6 7 3 4 1018.6 1017.4 0.0
28/08:00am 15.8 13.8 7.1 56 4.4 SSW 7 11 4 6 1018.5 1017.3 0.0
28/07:30am 14.2 12.4 7.3 63 3.4 SE 6 9 3 5 1018.1 1016.9 0.0
28/07:00am 12.0 9.2 5.0 62 3.3 SE 9 11 5 6 1017.7 1016.5 0.0
28/06:30am 12.4 9.9 4.9 60 3.5 ESE 7 9 4 5 1017.4 1016.1 0.0
28/06:00am 12.7 9.6 5.6 62 3.4 ESE 11 13 6 7 1017.1 1015.8 0.0
28/05:30am 12.4 9.2 5.1 61 3.4 ESE 11 13 6 7 1017.0 1015.7 0.0
28/05:00am 11.9 9.1 3.4 56 3.8 ESE 7 9 4 5 1016.9 1015.6 0.0
28/04:30am 12.4 9.8 3.1 53 4.2 E 6 7 3 4 1016.6 1015.4 0.0
28/04:00am 13.2 10.1 3.8 53 4.3 ESE 9 11 5 6 1016.8 1015.5 0.0
28/03:30am 13.0 10.4 3.1 51 4.5 SSE 6 7 3 4 1016.9 1015.6 0.0
28/03:00am 13.5 10.7 3.3 50 4.6 SSE 7 9 4 5 1017.1 1015.8 0.0
28/02:30am 13.3 10.5 3.1 50 4.6 S 7 9 4 5 1017.2 1015.9 0.0
28/02:00am 14.0 11.2 2.3 45 5.2 W 6 7 3 4 1017.5 1016.3 0.0
28/01:30am 15.5 13.6 2.7 42 5.9 ESE 2 6 1 3 1017.5 1016.3 0.0
28/01:00am 19.4 16.8 6.2 42 6.7 ENE 9 13 5 7 1017.5 1016.3 0.0
28/12:30am 18.4 15.7 5.6 43 6.3 ESE 9 11 5 6 1017.4 1016.1 0.0
28/12:00am 19.1 16.3 5.2 40 6.9 NE 9 11 5 6 1017.6 1016.4 0.0
 
Date/Time
EST
Temp
°C
App
Temp
°C
Dew
Point
°C
Rel
Hum
%
Delta-T
°C
Wind Press
QNH
hPa
Press
MSL
hPa
Rain since
9am
mm
Dir  Spd
km/h
Gust
km/h
Spd
kts
Gust
kts
27/11:30pm 19.4 16.6 5.1 39 7.1 NE 9 13 5 7 1017.7 1016.5 0.0
27/11:00pm 19.3 16.3 4.3 37 7.3 NE 9 11 5 6 1017.8 1016.6 0.0
27/10:30pm 18.5 15.5 1.9 33 7.7 E 7 9 4 5 1017.9 1016.7 0.0
27/10:00pm 20.0 16.8 3.3 33 8.0 E 9 11 5 6 1017.9 1016.7 0.0
27/09:30pm 20.1 16.9 3.3 33 8.1 ESE 9 11 5 6 1017.9 1016.7 0.0
27/09:00pm 21.0 17.4 2.8 30 8.7 ESE 11 13 6 7 1017.7 1016.5 0.0
27/08:30pm 21.5 17.9 2.7 29 9.0 ESE 11 13 6 7 1017.5 1016.3 0.0
27/08:00pm 21.5 17.7 1.7 27 9.3 ESE 11 13 6 7 1017.3 1016.0 0.0
27/07:30pm 22.2 18.4 1.8 26 9.7 ESE 11 13 6 7 1016.8 1015.5 0.0
27/07:00pm 23.0 19.2 1.9 25 10.1 SE 11 13 6 7 1016.2 1015.0 0.0
27/06:30pm 24.2 20.4 1.8 23 10.8 ESE 11 13 6 7 1015.9 1014.7 0.0
27/06:00pm 26.1 22.4 2.1 21 11.7 ESE 11 11 6 6 1015.6 1014.4 0.0
27/05:30pm 28.2 24.0 1.7 18 13.1 ESE 13 17 7 9 1015.3 1014.1 0.0
27/05:00pm 29.3 26.3 1.7 17 13.7 E 7 13 4 7 1015.0 1013.8 0.0
27/04:30pm 29.9 25.8 2.2 17 13.9 ESE 13 19 7 10 1015.0 1013.8 0.0
27/04:00pm 29.9 26.8 1.4 16 14.1 SE 7 15 4 8 1014.9 1013.7 0.0
27/03:30pm 30.0 25.9 2.3 17 14.0 SE 13 24 7 13 1014.8 1013.6 0.0

Other Formats:

Comma delimited format used in spreadsheet applications
http://www.bom.gov.au/fwo/IDQ60801/IDQ60801.94343.axf

JavaScript Object Notation format (JSON) in row-major order
http://www.bom.gov.au/fwo/IDQ60801/IDQ60801.94343.json